Close

Questo sito utlizza cookie. Può leggere come li usiamo nella nostra Privacy Policy.

Ronchi Tower
Ronchi Tower

From Facebook

METAR & TAF

2018/04/23 00:50 LIPQ 230050Z AUTO 11004KT 9999 NCD 10/06 Q1018
2018/04/22 18:21 TAF LIPQ 221700Z 2218/2318 VRB05KT CAVOK TEMPO 2222/2306 2000 BCFG BECMG 2310/2312 19010KT
2018/04/23 00:50 LIPZ 230050Z 04007KT CAVOK 14/13 Q1017 NOSIG
2018/04/22 18:21 TAF LIPZ 221700Z 2218/2324 14010KT CAVOK BECMG 2218/2220 VRB05KT TEMPO 2222/2306 2000 BCFG BECMG 2307/2310 15010KT BECMG 2317/2319 VRB05KT TEMPO 2321/2324 2000 BCFG
2018/04/23 00:50 LIPH 230050Z AUTO 03003KT 9999 NCD 14/12 Q1017
2018/04/22 18:21 TAF LIPH 221700Z 2218/2318 VRB05KT CAVOK TEMPO 2222/2306 2000 BCFG
2018/04/23 00:50 LIRF 230050Z 09004KT 4000 BCFG SCT007 12/12 Q1019 BECMG 2000 BR
2018/04/23 00:49 TAF COR LIRF 230041Z 2300/2406 VRB05KT 4000 BR NSC TEMPO 2301/2306 0800 BCFG BKN005 BECMG 2306/2308 8000 BECMG 2308/2310 26012KT BECMG 2317/2319 VRB05KT BECMG 2322/2324 3000 BR
2018/04/23 00:50 LIML 230050Z 00000KT CAVOK 15/12 Q1017 NOSIG
2018/04/22 18:21 TAF LIML 221700Z 2218/2318 VRB05KT CAVOK
2018/04/23 00:50 EDDM 230050Z 24005KT CAVOK 11/07 Q1015 NOSIG
2018/04/22 18:27 TAF EDDM 221700Z 2218/2324 26005KT CAVOK BECMG 2307/2309 26010KT TEMPO 2314/2321 28015G25KT SHRA BKN040CB PROB30 TEMPO 2315/2319 30020G35KT 3000 TSRA BECMG 2321/2323 25005KT PROB30 TEMPO 2321/2324 SHRA BKN040TCU
2018/04/23 00:50 EGSS 230050Z AUTO 25007KT 9999 NCD 09/06 Q1013
2018/04/22 18:16 TAF EGSS 221656Z 2218/2324 25010KT 9999 FEW040

FlightRadar24

Radar Meteo

Traffic data

Febbraio 2018

Passeggeri: 48779+2,6% (rank: 21)
Nazionali 34226 +9,8% 21°
Internazionali 14423 -11,2% 22°

Movimenti: 1043-8,7% (rank: 21)
Tot commerciale 603 -4,0% 21°
Aviazione generale 440 -14,6%

Cargo (tons): 13,8-43,0% (rank: 22)

Gennaio - Febbraio 2018

Passeggeri: 98398-0,1% (rank: 23)
Nazionali 68752 +5,6% 22°
Internazionali 29377 -11,4% 22°

Movimenti: 2089-13,6% (rank: 21)
Tot commerciale 1223 -5,6% 21°
Aviazione generale 866 -22,8%

Cargo (tons): 29,3-52,5% (rank: 22)

Photo

Reims F152
Reims F152
Distinct views: 10
Douglas DC-6B
Douglas DC-6B
Distinct views: 49
Douglas DC-6B
Douglas DC-6B
Distinct views: 179
Boeing 737-800
Boeing 737-800
Total views: 431